Time;durP1;ratioP1;P1;durP2;ratioP2;P2;SDS_P1;SDS_P2;PMS_P1;PMS_P2;Temp;Humidity;BMP_temperature;BMP_pressure;BME280_temperature;BME280_humidity;BME280_pressure;Samples;Min_cycle;Max_cycle;Signal;HPM_P1;HPM_P2
2023/07/04 00:00:13;;;;;;;3.70;2.40;;;;;23.10;100042.00;;;;2057960;28;20230;-67
2023/07/04 00:01:21;;;;;;;3.73;1.80;;;;;23.10;100050.00;;;;2060393;28;20214;-67
2023/07/04 00:02:22;;;;;;;4.57;1.95;;;;;23.10;100039.00;;;;2046796;28;20225;-67
2023/07/04 00:03:22;;;;;;;3.20;2.03;;;;;23.10;100035.00;;;;2058543;28;20217;-67
2023/07/04 00:04:23;;;;;;;3.90;2.43;;;;;23.10;100028.00;;;;2067211;28;20210;-67
2023/07/04 00:05:23;;;;;;;3.00;1.80;;;;;23.10;100032.00;;;;2056232;28;20242;-67
2023/07/04 00:06:27;;;;;;;3.63;1.93;;;;;23.10;100038.00;;;;2062915;28;20254;-67
2023/07/04 00:07:28;;;;;;;5.10;2.65;;;;;23.10;100044.00;;;;2052052;28;20740;-67
2023/07/04 00:08:29;;;;;;;5.00;2.40;;;;;23.10;100040.00;;;;2060515;28;20210;-67
2023/07/04 00:09:30;;;;;;;5.32;2.22;;;;;23.10;100045.00;;;;2063303;28;20654;-67
2023/07/04 00:10:30;;;;;;;4.63;2.23;;;;;23.10;100032.00;;;;2063388;28;20207;-67
2023/07/04 00:11:31;;;;;;;4.27;2.30;;;;;23.10;100035.00;;;;2062621;28;20242;-67
2023/07/04 00:12:31;;;;;;;4.17;2.27;;;;;23.10;100037.00;;;;2049915;28;20226;-67
2023/07/04 00:13:32;;;;;;;3.40;1.97;;;;;23.10;100037.00;;;;2062147;28;20206;-67
2023/07/04 00:14:32;;;;;;;6.47;2.30;;;;;23.10;100036.00;;;;2067610;28;20207;-67
2023/07/04 00:15:33;;;;;;;6.17;2.70;;;;;23.10;100030.00;;;;2060055;28;20207;-67
2023/07/04 00:16:33;;;;;;;4.00;2.60;;;;;23.10;100030.00;;;;2056074;28;20223;-67
2023/07/04 00:17:33;;;;;;;7.00;2.37;;;;;23.10;100035.00;;;;2051942;28;20227;-67
2023/07/04 00:18:36;;;;;;;4.60;2.43;;;;;23.10;100029.00;;;;2057455;28;20219;-67
2023/07/04 00:19:37;;;;;;;5.60;2.67;;;;;23.10;100041.00;;;;2068785;28;20206;-67
2023/07/04 00:20:37;;;;;;;3.13;2.17;;;;;23.10;100033.00;;;;2061812;28;20199;-67
2023/07/04 00:21:38;;;;;;;5.70;2.10;;;;;23.10;100035.00;;;;2055665;28;20210;-67
2023/07/04 00:22:40;;;;;;;5.70;2.22;;;;;23.10;100032.00;;;;2051160;28;20227;-67
2023/07/04 00:23:44;;;;;;;5.68;2.55;;;;;23.10;100032.00;;;;2056733;28;20399;-67
2023/07/04 00:24:47;;;;;;;3.50;1.92;;;;;23.10;100035.00;;;;2056928;28;20246;-67
2023/07/04 00:25:47;;;;;;;7.20;2.47;;;;;23.10;100030.00;;;;2066243;28;20235;-67
2023/07/04 00:26:47;;;;;;;4.57;2.37;;;;;23.10;100029.00;;;;2061927;28;20228;-67
2023/07/04 00:27:49;;;;;;;4.03;2.17;;;;;23.10;100029.00;;;;2050569;28;20216;-67
2023/07/04 00:28:49;;;;;;;5.28;2.40;;;;;23.10;100043.00;;;;2059391;28;20223;-67
2023/07/04 00:29:50;;;;;;;3.90;2.13;;;;;23.10;100038.00;;;;2059763;28;20235;-67
2023/07/04 00:30:52;;;;;;;6.60;2.33;;;;;23.10;100036.00;;;;2064373;28;20230;-67
2023/07/04 00:31:52;;;;;;;5.25;2.42;;;;;23.10;100030.00;;;;2059998;28;20476;-67
2023/07/04 00:32:52;;;;;;;4.20;2.03;;;;;23.10;100026.00;;;;2050308;28;20228;-67
2023/07/04 00:33:53;;;;;;;5.40;1.90;;;;;23.10;100037.00;;;;2063370;28;20220;-67
2023/07/04 00:34:53;;;;;;;6.80;2.80;;;;;23.10;100044.00;;;;2063352;28;20220;-67
2023/07/04 00:36:00;;;;;;;3.50;1.73;;;;;23.10;100041.00;;;;2063550;28;20227;-67
2023/07/04 00:37:02;;;;;;;3.92;2.30;;;;;23.10;100047.00;;;;2057700;28;21102;-67
2023/07/04 00:38:02;;;;;;;3.63;2.10;;;;;23.10;100036.00;;;;2050553;28;20350;-67
2023/07/04 00:39:02;;;;;;;2.90;2.00;;;;;23.10;100044.00;;;;2053617;28;20360;-67
2023/07/04 00:40:07;;;;;;;4.10;1.87;;;;;23.10;100046.00;;;;2059259;28;20203;-68
2023/07/04 00:41:15;;;;;;;3.53;2.00;;;;;23.10;100049.00;;;;2063160;28;20570;-68
2023/07/04 00:42:15;;;;;;;4.07;2.65;;;;;23.10;100052.00;;;;2046833;28;20231;-68
2023/07/04 00:43:16;;;;;;;4.20;1.93;;;;;23.10;100050.00;;;;2059905;28;20242;-68
2023/07/04 00:44:22;;;;;;;3.13;1.90;;;;;23.10;100049.00;;;;2056591;28;20211;-68
2023/07/04 00:45:22;;;;;;;5.75;2.67;;;;;23.10;100046.00;;;;2056181;28;20583;-68
2023/07/04 00:46:28;;;;;;;4.27;1.80;;;;;23.10;100048.00;;;;2051236;28;20240;-68
2023/07/04 00:47:43;;;;;;;4.70;2.25;;;;;23.10;100049.00;;;;2022604;29;20225;-68
2023/07/04 00:48:44;;;;;;;4.60;2.55;;;;;23.10;100044.00;;;;2054058;28;20212;-68
2023/07/04 00:49:48;;;;;;;3.10;2.00;;;;;23.10;100046.00;;;;2058562;28;20270;-68
2023/07/04 00:50:49;;;;;;;6.85;2.08;;;;;23.10;100049.00;;;;2051803;28;20224;-68
2023/07/04 00:51:57;;;;;;;2.80;1.90;;;;;23.10;100046.00;;;;2051565;28;20223;-68
2023/07/04 00:52:59;;;;;;;4.63;2.10;;;;;23.10;100044.00;;;;2041093;28;20215;-68
2023/07/04 00:53:59;;;;;;;3.80;1.95;;;;;23.00;100045.00;;;;2055425;28;20778;-68
2023/07/04 00:55:07;;;;;;;4.33;2.40;;;;;23.10;100023.00;;;;2058620;28;20229;-68
2023/07/04 00:56:08;;;;;;;4.90;2.47;;;;;23.10;100046.00;;;;2042177;29;20267;-68
2023/07/04 00:57:08;;;;;;;4.70;2.60;;;;;23.10;100047.00;;;;2034384;28;20681;-68
2023/07/04 00:58:09;;;;;;;6.83;2.73;;;;;23.10;100039.00;;;;2054582;28;20778;-67
2023/07/04 00:59:09;;;;;;;3.27;2.27;;;;;23.10;100052.00;;;;2063122;28;20304;-67
2023/07/04 01:00:19;;;;;;;4.80;2.23;;;;;23.10;100038.00;;;;2063018;28;20454;-67
2023/07/04 01:01:20;;;;;;;3.80;1.88;;;;;23.10;100047.00;;;;2069958;28;20232;-67
2023/07/04 01:02:21;;;;;;;4.60;2.07;;;;;23.10;100047.00;;;;2043147;28;20246;-67
2023/07/04 01:03:24;;;;;;;2.97;2.00;;;;;23.10;100025.00;;;;2039467;28;20221;-67
2023/07/04 01:04:25;;;;;;;4.70;2.80;;;;;23.10;100038.00;;;;2039132;29;20681;-67
2023/07/04 01:05:29;;;;;;;3.13;1.90;;;;;23.10;100044.00;;;;2053289;28;20224;-67
2023/07/04 01:06:41;;;;;;;5.10;2.50;;;;;23.10;100042.00;;;;2054838;28;20215;-67
2023/07/04 01:07:58;;;;;;;4.68;2.15;;;;;23.10;100035.00;;;;2044225;28;20219;-67
2023/07/04 01:09:00;;;;;;;4.72;2.13;;;;;23.10;100037.00;;;;2052923;28;20220;-67
2023/07/04 01:10:05;;;;;;;4.50;2.40;;;;;23.10;100040.00;;;;2054767;28;20235;-67
2023/07/04 01:11:09;;;;;;;3.97;2.20;;;;;23.10;100034.00;;;;2052065;28;20220;-67
2023/07/04 01:12:09;;;;;;;4.13;2.00;;;;;23.10;100036.00;;;;2044005;28;20254;-67
2023/07/04 01:13:28;;;;;;;5.67;3.10;;;;;23.10;100030.00;;;;2046920;29;20219;-67
2023/07/04 01:14:29;;;;;;;5.05;2.38;;;;;23.10;100041.00;;;;2055530;28;20215;-67
2023/07/04 01:15:29;;;;;;;6.57;2.50;;;;;23.10;100039.00;;;;2065926;28;20618;-67
2023/07/04 01:16:31;;;;;;;5.67;2.40;;;;;23.10;100039.00;;;;2059110;28;20286;-67
2023/07/04 01:17:31;;;;;;;5.50;2.63;;;;;23.10;100045.00;;;;2052677;28;20250;-67
2023/07/04 01:18:31;;;;;;;5.47;2.20;;;;;23.10;100055.00;;;;2056124;28;20649;-67
2023/07/04 01:19:34;;;;;;;5.50;2.47;;;;;23.10;100041.00;;;;2062858;28;20710;-67
2023/07/04 01:20:34;;;;;;;4.28;2.40;;;;;23.10;100037.00;;;;2057594;28;20305;-67
2023/07/04 01:21:35;;;;;;;5.13;2.00;;;;;23.10;100037.00;;;;2053561;28;20756;-67
2023/07/04 01:22:42;;;;;;;5.43;2.47;;;;;23.10;100038.00;;;;2043787;28;20613;-67
2023/07/04 01:23:49;;;;;;;3.83;1.88;;;;;23.10;100043.00;;;;2047524;28;20460;-67
2023/07/04 01:25:09;;;;;;;5.25;2.45;;;;;23.10;100046.00;;;;2055573;28;20487;-67
2023/07/04 01:26:31;;;;;;;4.45;2.00;;;;;23.10;100020.00;;;;2047637;28;20247;-67
2023/07/04 01:27:32;;;;;;;6.43;2.20;;;;;23.10;100046.00;;;;2049370;28;20230;-67
2023/07/04 01:28:32;;;;;;;6.10;2.40;;;;;23.10;100045.00;;;;2049875;28;20211;-67
2023/07/04 01:29:36;;;;;;;7.37;2.27;;;;;23.10;100042.00;;;;2041645;28;20596;-67
2023/07/04 01:30:38;;;;;;;4.95;2.55;;;;;23.10;100046.00;;;;2053543;28;20215;-67
2023/07/04 01:31:40;;;;;;;3.88;2.20;;;;;23.10;100017.00;;;;2035487;29;20242;-67
2023/07/04 01:32:41;;;;;;;4.60;2.33;;;;;23.10;100037.00;;;;2024232;28;20229;-67
2023/07/04 01:33:42;;;;;;;5.70;2.23;;;;;23.10;100043.00;;;;2039113;28;20216;-67
2023/07/04 01:34:42;;;;;;;6.77;2.17;;;;;23.10;100049.00;;;;2043122;28;20457;-67
2023/07/04 01:35:43;;;;;;;3.07;1.83;;;;;23.10;100047.00;;;;2054486;28;20250;-67
2023/07/04 01:36:44;;;;;;;4.93;2.50;;;;;23.10;100045.00;;;;2066120;28;20264;-67
2023/07/04 01:37:44;;;;;;;4.95;2.30;;;;;23.10;100046.00;;;;2051501;28;20479;-67
2023/07/04 01:38:45;;;;;;;4.70;2.20;;;;;23.10;100053.00;;;;2054677;28;20310;-67
2023/07/04 01:39:45;;;;;;;4.00;2.37;;;;;23.10;100050.00;;;;2060031;28;20218;-67
2023/07/04 01:40:46;;;;;;;4.53;2.40;;;;;23.10;100054.00;;;;2060892;28;20304;-67
2023/07/04 01:41:47;;;;;;;4.77;2.10;;;;;23.10;100060.00;;;;2062463;28;20581;-67
2023/07/04 01:42:49;;;;;;;6.20;2.40;;;;;23.10;100058.00;;;;2056635;28;20215;-67
2023/07/04 01:43:53;;;;;;;4.95;2.80;;;;;23.10;100056.00;;;;2059788;28;20221;-67
2023/07/04 01:44:54;;;;;;;6.35;2.00;;;;;23.10;100054.00;;;;2050918;28;20238;-67
2023/07/04 01:45:54;;;;;;;3.20;1.93;;;;;23.10;100059.00;;;;2061044;28;20207;-67
2023/07/04 01:46:54;;;;;;;4.90;2.27;;;;;23.10;100068.00;;;;2060819;28;20346;-67
2023/07/04 01:47:55;;;;;;;5.23;2.10;;;;;23.10;100061.00;;;;2056903;28;20214;-67
2023/07/04 01:48:55;;;;;;;6.10;2.90;;;;;23.10;100061.00;;;;2065225;28;20235;-67
2023/07/04 01:49:56;;;;;;;3.80;2.00;;;;;23.10;100063.00;;;;2059273;28;20219;-67
2023/07/04 01:50:56;;;;;;;3.20;2.00;;;;;23.10;100065.00;;;;2060933;28;20458;-67
2023/07/04 01:51:57;;;;;;;4.10;2.10;;;;;23.10;100050.00;;;;2059144;28;20651;-67
2023/07/04 01:52:57;;;;;;;4.93;2.13;;;;;23.10;100059.00;;;;2047443;28;20211;-68
2023/07/04 01:53:58;;;;;;;3.60;2.00;;;;;23.10;100057.00;;;;2061934;28;20466;-68
2023/07/04 01:54:58;;;;;;;3.77;2.17;;;;;23.10;100057.00;;;;2063614;28;20211;-68
2023/07/04 01:55:58;;;;;;;5.33;2.20;;;;;23.10;100059.00;;;;2064620;28;20886;-68
2023/07/04 01:56:59;;;;;;;4.53;2.77;;;;;23.10;100065.00;;;;2060466;28;20257;-68
2023/07/04 01:58:00;;;;;;;5.20;2.50;;;;;23.10;100062.00;;;;2049182;28;20211;-68
2023/07/04 01:59:01;;;;;;;5.05;2.28;;;;;23.10;100057.00;;;;2061636;28;20230;-68
2023/07/04 02:00:02;;;;;;;5.30;2.57;;;;;23.10;100061.00;;;;2066713;28;20218;-68
2023/07/04 02:01:02;;;;;;;5.93;2.40;;;;;23.10;100058.00;;;;2065738;28;20218;-68
2023/07/04 02:02:03;;;;;;;4.13;2.30;;;;;23.10;100059.00;;;;2063039;28;20820;-68
2023/07/04 02:03:03;;;;;;;3.80;2.00;;;;;23.10;100061.00;;;;2050420;28;20273;-68
2023/07/04 02:04:04;;;;;;;3.83;2.00;;;;;23.10;100062.00;;;;2058505;28;20683;-68
2023/07/04 02:05:05;;;;;;;5.70;2.47;;;;;23.10;100055.00;;;;2056267;28;20218;-68
2023/07/04 02:06:06;;;;;;;7.47;2.75;;;;;23.10;100060.00;;;;2058495;28;20614;-68
2023/07/04 02:07:07;;;;;;;4.33;2.50;;;;;23.10;100056.00;;;;2051119;28;20302;-68
2023/07/04 02:08:08;;;;;;;5.50;2.57;;;;;23.10;100054.00;;;;2059505;28;20927;-68
2023/07/04 02:09:08;;;;;;;5.78;2.53;;;;;23.10;100063.00;;;;2057849;28;20215;-68
2023/07/04 02:10:09;;;;;;;3.33;2.13;;;;;23.10;100046.00;;;;2060394;28;20239;-68
2023/07/04 02:11:10;;;;;;;5.33;2.90;;;;;23.10;100057.00;;;;2062729;28;20688;-68
2023/07/04 02:12:10;;;;;;;3.05;1.75;;;;;23.10;100046.00;;;;2049890;28;20222;-68
2023/07/04 02:13:11;;;;;;;5.10;2.33;;;;;23.10;100047.00;;;;2060929;28;20215;-68
2023/07/04 02:14:11;;;;;;;4.47;2.20;;;;;23.10;100051.00;;;;2062748;28;20207;-68
2023/07/04 02:15:11;;;;;;;3.23;1.80;;;;;23.10;100049.00;;;;2059822;28;20237;-68
2023/07/04 02:16:12;;;;;;;6.57;2.30;;;;;23.10;100060.00;;;;2062739;28;20649;-68
2023/07/04 02:17:12;;;;;;;3.80;2.00;;;;;23.10;100063.00;;;;2051925;28;20214;-68
2023/07/04 02:18:12;;;;;;;4.50;2.23;;;;;23.10;100054.00;;;;2063588;28;21026;-68
2023/07/04 02:19:13;;;;;;;4.70;2.40;;;;;23.10;100061.00;;;;2062570;28;20664;-68
2023/07/04 02:20:16;;;;;;;5.03;2.00;;;;;23.10;100050.00;;;;2056365;28;20742;-68
2023/07/04 02:21:16;;;;;;;7.30;2.42;;;;;23.10;100050.00;;;;2060890;28;20218;-68
2023/07/04 02:22:16;;;;;;;4.90;2.40;;;;;23.10;100051.00;;;;2044002;28;20715;-68
2023/07/04 02:23:17;;;;;;;5.97;2.20;;;;;23.10;100049.00;;;;2048223;28;20242;-68
2023/07/04 02:24:17;;;;;;;5.60;2.97;;;;;23.10;100056.00;;;;2059519;28;20731;-68
2023/07/04 02:25:17;;;;;;;10.87;3.10;;;;;23.10;100044.00;;;;2054985;28;20674;-68
2023/07/04 02:26:18;;;;;;;7.17;2.40;;;;;23.10;100041.00;;;;2067746;28;20236;-68
2023/07/04 02:27:18;;;;;;;4.10;2.63;;;;;23.10;100046.00;;;;2055617;28;20214;-68
2023/07/04 02:28:18;;;;;;;4.33;2.30;;;;;23.10;100051.00;;;;2058083;28;20227;-68
2023/07/04 02:29:19;;;;;;;5.73;2.73;;;;;23.10;100046.00;;;;2059617;28;20667;-68
2023/07/04 02:30:19;;;;;;;5.10;1.97;;;;;23.10;100051.00;;;;2056523;28;20738;-68
2023/07/04 02:31:19;;;;;;;4.43;2.53;;;;;23.10;100040.00;;;;2057298;28;20761;-68
2023/07/04 02:32:20;;;;;;;5.27;2.70;;;;;23.10;100054.00;;;;2051095;28;20690;-68
2023/07/04 02:33:20;;;;;;;4.73;2.00;;;;;23.10;100049.00;;;;2063658;28;20215;-68
2023/07/04 02:34:21;;;;;;;4.33;2.27;;;;;23.10;100048.00;;;;2062243;28;20246;-68
2023/07/04 02:35:21;;;;;;;6.60;2.03;;;;;23.10;100045.00;;;;2057761;28;20216;-68
2023/07/04 02:36:21;;;;;;;5.10;2.57;;;;;23.10;100038.00;;;;2058721;28;20223;-68
2023/07/04 02:37:22;;;;;;;6.07;2.27;;;;;23.10;100050.00;;;;2057483;28;20297;-68
2023/07/04 02:38:22;;;;;;;4.17;2.40;;;;;23.10;100041.00;;;;2057171;28;20230;-68
2023/07/04 02:39:26;;;;;;;4.43;2.10;;;;;23.10;100046.00;;;;2061875;28;20214;-67
2023/07/04 02:40:27;;;;;;;7.00;3.30;;;;;23.10;100045.00;;;;2065431;28;20241;-67
2023/07/04 02:41:29;;;;;;;5.43;2.40;;;;;23.10;100042.00;;;;2062660;28;20302;-67
2023/07/04 02:42:29;;;;;;;4.53;2.40;;;;;23.10;100035.00;;;;2059064;28;20578;-67
2023/07/04 02:43:30;;;;;;;5.17;2.60;;;;;23.10;100039.00;;;;2057663;28;20215;-67
2023/07/04 02:44:30;;;;;;;4.83;2.50;;;;;23.10;100042.00;;;;2054680;28;20215;-67
2023/07/04 02:45:30;;;;;;;5.07;2.97;;;;;23.10;100047.00;;;;2062435;28;20347;-67
2023/07/04 02:46:31;;;;;;;4.77;2.20;;;;;23.10;100043.00;;;;2062227;28;20207;-67
2023/07/04 02:47:31;;;;;;;5.80;2.57;;;;;23.10;100051.00;;;;2059129;28;20231;-67
2023/07/04 02:48:32;;;;;;;5.23;2.10;;;;;23.10;100047.00;;;;2058139;28;20215;-67
2023/07/04 02:49:35;;;;;;;6.50;2.40;;;;;23.10;100047.00;;;;2055252;28;20237;-67
2023/07/04 02:50:35;;;;;;;5.70;2.40;;;;;23.10;100045.00;;;;2064042;28;20212;-67
2023/07/04 02:51:35;;;;;;;6.83;2.90;;;;;23.10;100046.00;;;;2062093;28;20230;-67
2023/07/04 02:52:36;;;;;;;3.97;2.30;;;;;23.10;100048.00;;;;2045655;28;20222;-67
2023/07/04 02:53:36;;;;;;;5.43;2.50;;;;;23.10;100047.00;;;;2061851;28;20207;-67
2023/07/04 02:54:36;;;;;;;5.70;2.63;;;;;23.10;100046.00;;;;2061892;28;20207;-67
2023/07/04 02:55:36;;;;;;;5.60;2.27;;;;;23.10;100046.00;;;;2064177;28;20219;-67
2023/07/04 02:56:37;;;;;;;5.97;2.73;;;;;23.10;100042.00;;;;2058818;28;20234;-67
2023/07/04 02:57:37;;;;;;;3.47;2.33;;;;;23.10;100054.00;;;;2046793;28;20224;-67
2023/07/04 02:58:38;;;;;;;4.80;2.60;;;;;23.10;100048.00;;;;2063575;28;20203;-67
2023/07/04 02:59:39;;;;;;;6.23;2.30;;;;;23.10;100043.00;;;;2057657;28;20604;-67
2023/07/04 03:00:39;;;;;;;5.80;2.50;;;;;23.10;100023.00;;;;2062948;28;20207;-67
2023/07/04 03:01:39;;;;;;;5.67;2.30;;;;;23.10;100046.00;;;;2052116;28;20466;-67
2023/07/04 03:02:40;;;;;;;6.03;2.40;;;;;23.10;100045.00;;;;2052285;28;20255;-67
2023/07/04 03:03:40;;;;;;;4.60;2.37;;;;;23.10;100038.00;;;;2070591;28;20210;-67
2023/07/04 03:04:40;;;;;;;5.63;2.40;;;;;23.10;100041.00;;;;2066304;28;20560;-67
2023/07/04 03:05:41;;;;;;;7.07;2.57;;;;;23.10;100040.00;;;;2064137;28;20776;-67
2023/07/04 03:06:41;;;;;;;6.87;2.43;;;;;23.10;100045.00;;;;2066299;28;20249;-67
2023/07/04 03:07:41;;;;;;;6.03;2.67;;;;;23.10;100043.00;;;;2052595;28;20239;-67
2023/07/04 03:08:44;;;;;;;5.10;2.60;;;;;23.10;100042.00;;;;2066466;28;20261;-67
2023/07/04 03:09:45;;;;;;;6.13;2.38;;;;;23.10;100046.00;;;;2059799;28;20211;-67
2023/07/04 03:10:46;;;;;;;5.53;2.23;;;;;23.10;100040.00;;;;2064425;28;20218;-67
2023/07/04 03:11:46;;;;;;;5.37;2.20;;;;;23.10;100037.00;;;;2064328;28;20245;-67
2023/07/04 03:12:46;;;;;;;4.27;2.60;;;;;23.10;100043.00;;;;2051224;28;22865;-67
2023/07/04 03:13:47;;;;;;;3.77;1.93;;;;;23.10;100043.00;;;;2058023;28;20684;-67
2023/07/04 03:14:47;;;;;;;3.70;2.00;;;;;23.10;100041.00;;;;2061309;28;20246;-67
2023/07/04 03:15:47;;;;;;;6.80;2.37;;;;;23.10;100046.00;;;;2067597;28;20710;-67
2023/07/04 03:16:48;;;;;;;5.37;2.47;;;;;23.10;100046.00;;;;2067740;28;21349;-67
2023/07/04 03:17:48;;;;;;;4.03;2.30;;;;;23.10;100056.00;;;;2056076;28;20693;-67
2023/07/04 03:18:48;;;;;;;5.00;2.20;;;;;23.10;100048.00;;;;2062727;28;20230;-67
2023/07/04 03:19:49;;;;;;;5.27;2.43;;;;;23.10;100057.00;;;;2066635;28;20218;-67
2023/07/04 03:20:49;;;;;;;3.93;2.40;;;;;23.10;100056.00;;;;2060814;28;20589;-67
2023/07/04 03:21:49;;;;;;;6.40;2.40;;;;;23.10;100054.00;;;;2053314;28;20699;-67
2023/07/04 03:22:51;;;;;;;5.73;2.23;;;;;23.10;100063.00;;;;2043340;28;20765;-67
2023/07/04 03:23:51;;;;;;;5.47;2.88;;;;;23.10;100038.00;;;;2059715;28;20294;-67
2023/07/04 03:24:51;;;;;;;5.50;2.50;;;;;23.10;100058.00;;;;2061667;28;20603;-67
2023/07/04 03:25:52;;;;;;;5.20;2.30;;;;;23.10;100073.00;;;;2059829;28;20777;-67
2023/07/04 03:26:52;;;;;;;4.40;2.10;;;;;23.10;100073.00;;;;2062970;28;20684;-67
2023/07/04 03:27:52;;;;;;;4.60;2.03;;;;;23.10;100057.00;;;;2056064;28;20262;-67
2023/07/04 03:28:53;;;;;;;4.00;2.30;;;;;23.10;100065.00;;;;2065224;28;20222;-67
2023/07/04 03:29:53;;;;;;;4.60;2.20;;;;;23.10;100065.00;;;;2069507;28;20305;-67
2023/07/04 03:30:54;;;;;;;4.53;2.10;;;;;23.10;100057.00;;;;2063657;28;20251;-67
2023/07/04 03:31:54;;;;;;;5.33;2.40;;;;;23.10;100060.00;;;;2061324;28;20219;-67
2023/07/04 03:32:55;;;;;;;4.93;2.30;;;;;23.10;100054.00;;;;2057841;28;20454;-67
2023/07/04 03:33:55;;;;;;;4.57;1.87;;;;;23.10;100063.00;;;;2061458;28;20212;-67
2023/07/04 03:35:00;;;;;;;6.40;2.40;;;;;23.10;100062.00;;;;2066040;28;21062;-67
2023/07/04 03:36:01;;;;;;;7.10;2.75;;;;;23.10;100059.00;;;;2062749;28;20206;-67
2023/07/04 03:37:01;;;;;;;6.67;2.40;;;;;23.10;100062.00;;;;2061335;28;20759;-67
2023/07/04 03:38:01;;;;;;;9.17;3.07;;;;;23.10;100066.00;;;;2057085;28;20984;-67
2023/07/04 03:39:03;;;;;;;5.67;2.50;;;;;23.10;100063.00;;;;2060379;28;20751;-67
2023/07/04 03:40:08;;;;;;;4.53;2.35;;;;;23.10;100053.00;;;;2059665;28;20610;-68
2023/07/04 03:41:08;;;;;;;6.40;2.22;;;;;23.10;100060.00;;;;2050796;28;20212;-68
2023/07/04 03:42:09;;;;;;;4.40;2.33;;;;;23.10;100061.00;;;;2045862;28;20214;-68
2023/07/04 03:43:09;;;;;;;4.63;2.40;;;;;23.10;100061.00;;;;2065125;28;20238;-68
2023/07/04 03:44:09;;;;;;;4.67;2.60;;;;;23.10;100051.00;;;;2065609;28;20679;-68
2023/07/04 03:45:10;;;;;;;5.67;2.73;;;;;23.10;100061.00;;;;2054084;28;20755;-68
2023/07/04 03:46:10;;;;;;;4.47;2.20;;;;;23.10;100057.00;;;;2055303;28;20219;-68
2023/07/04 03:47:10;;;;;;;5.47;2.17;;;;;23.10;100069.00;;;;2037685;28;20762;-68
2023/07/04 03:48:11;;;;;;;5.13;2.60;;;;;23.10;100061.00;;;;2052231;28;20263;-68
2023/07/04 03:49:11;;;;;;;3.93;2.10;;;;;23.10;100065.00;;;;2043032;28;20212;-68
2023/07/04 03:50:13;;;;;;;5.43;2.03;;;;;23.10;100064.00;;;;2062516;28;20225;-68
2023/07/04 03:51:13;;;;;;;5.55;2.63;;;;;23.10;100068.00;;;;2058874;28;20746;-68
2023/07/04 03:52:13;;;;;;;6.43;2.43;;;;;23.10;100063.00;;;;2052231;28;20241;-68
2023/07/04 03:53:14;;;;;;;4.47;2.23;;;;;23.10;100069.00;;;;2050455;28;20207;-68
2023/07/04 03:54:14;;;;;;;4.77;2.10;;;;;23.10;100078.00;;;;2060871;28;20222;-68
2023/07/04 03:55:14;;;;;;;4.90;2.40;;;;;23.10;100067.00;;;;2060849;28;20207;-68
2023/07/04 03:56:15;;;;;;;5.30;2.40;;;;;23.10;100067.00;;;;2047327;28;20223;-68
2023/07/04 03:57:15;;;;;;;4.13;2.33;;;;;23.10;100059.00;;;;2052613;28;20211;-68
2023/07/04 03:58:19;;;;;;;4.93;2.30;;;;;23.10;100063.00;;;;2063740;28;20207;-68
2023/07/04 03:59:19;;;;;;;3.00;1.85;;;;;23.10;100062.00;;;;2063201;28;20233;-68
2023/07/04 04:00:20;;;;;;;4.37;2.20;;;;;23.10;100061.00;;;;2054371;28;20238;-68
2023/07/04 04:01:20;;;;;;;5.03;2.10;;;;;23.10;100050.00;;;;2063160;28;20289;-68
2023/07/04 04:02:21;;;;;;;7.20;2.70;;;;;23.10;100061.00;;;;2053911;28;20358;-68
2023/07/04 04:03:21;;;;;;;5.00;2.37;;;;;23.10;100065.00;;;;2067695;28;20301;-68
2023/07/04 04:04:21;;;;;;;5.23;2.07;;;;;23.10;100062.00;;;;2054598;28;20759;-68
2023/07/04 04:05:22;;;;;;;11.23;2.93;;;;;23.10;100075.00;;;;2054603;28;20245;-68
2023/07/04 04:06:22;;;;;;;5.90;2.30;;;;;23.10;100067.00;;;;2062902;28;21000;-68
2023/07/04 04:07:23;;;;;;;6.30;2.33;;;;;23.10;100059.00;;;;2053398;28;20293;-68
2023/07/04 04:08:23;;;;;;;5.88;2.22;;;;;23.10;100063.00;;;;2052120;28;20764;-68
2023/07/04 04:09:24;;;;;;;3.63;2.40;;;;;23.10;100069.00;;;;2065034;28;20215;-68
2023/07/04 04:10:24;;;;;;;4.40;2.10;;;;;23.10;100070.00;;;;2059412;28;20223;-68
2023/07/04 04:11:24;;;;;;;4.93;2.37;;;;;23.10;100066.00;;;;2068600;28;20222;-68
2023/07/04 04:12:25;;;;;;;5.50;2.33;;;;;23.10;100063.00;;;;2048907;28;20216;-68
2023/07/04 04:13:26;;;;;;;5.60;2.30;;;;;23.10;100067.00;;;;2064878;28;20238;-68
2023/07/04 04:14:28;;;;;;;5.55;2.50;;;;;23.10;100064.00;;;;2065650;28;20297;-68
2023/07/04 04:15:28;;;;;;;4.75;2.30;;;;;23.10;100070.00;;;;2063328;28;20227;-68
2023/07/04 04:16:29;;;;;;;5.20;2.57;;;;;23.10;100070.00;;;;2059354;28;20220;-68
2023/07/04 04:17:29;;;;;;;5.27;2.30;;;;;23.10;100069.00;;;;2047062;28;20219;-68
2023/07/04 04:18:30;;;;;;;5.43;2.60;;;;;23.10;100081.00;;;;2056650;28;20288;-68
2023/07/04 04:19:31;;;;;;;3.93;1.83;;;;;23.10;100078.00;;;;2068164;28;20214;-68
2023/07/04 04:20:31;;;;;;;6.80;2.17;;;;;23.10;100083.00;;;;2063373;28;20878;-68
2023/07/04 04:21:31;;;;;;;4.70;2.00;;;;;23.10;100082.00;;;;2056381;28;20735;-68
2023/07/04 04:22:35;;;;;;;5.30;2.20;;;;;23.10;100078.00;;;;2053163;28;20733;-68
2023/07/04 04:23:35;;;;;;;4.60;2.30;;;;;23.10;100086.00;;;;2056027;28;20215;-68
2023/07/04 04:24:37;;;;;;;7.13;2.73;;;;;23.10;100080.00;;;;2066412;28;20206;-68
2023/07/04 04:25:38;;;;;;;4.93;2.50;;;;;23.10;100090.00;;;;2059610;28;20872;-68
2023/07/04 04:26:39;;;;;;;5.87;2.43;;;;;23.10;100075.00;;;;2064032;28;20223;-68
2023/07/04 04:27:40;;;;;;;6.35;2.65;;;;;23.10;100081.00;;;;2057965;28;20230;-68
2023/07/04 04:28:40;;;;;;;5.07;2.53;;;;;23.10;100077.00;;;;2063747;28;20211;-68
2023/07/04 04:29:41;;;;;;;4.50;2.70;;;;;23.10;100079.00;;;;2064930;28;20219;-68
2023/07/04 04:30:42;;;;;;;3.30;2.03;;;;;23.10;100081.00;;;;2060530;28;20220;-68
2023/07/04 04:31:46;;;;;;;3.88;1.90;;;;;23.10;100086.00;;;;2056323;28;20465;-68
2023/07/04 04:32:46;;;;;;;7.25;2.65;;;;;23.10;100087.00;;;;2056686;28;20222;-68
2023/07/04 04:33:47;;;;;;;5.10;2.70;;;;;23.10;100083.00;;;;2063037;28;20210;-68
2023/07/04 04:34:48;;;;;;;4.60;2.43;;;;;23.10;100093.00;;;;2061352;28;20269;-68
2023/07/04 04:35:48;;;;;;;5.23;2.57;;;;;23.10;100090.00;;;;2064901;28;20218;-68
2023/07/04 04:36:48;;;;;;;6.27;2.23;;;;;23.10;100087.00;;;;2061967;28;20215;-67
2023/07/04 04:37:49;;;;;;;5.90;2.40;;;;;23.10;100089.00;;;;2058298;28;20312;-67
2023/07/04 04:38:49;;;;;;;8.87;2.80;;;;;23.10;100091.00;;;;2056846;28;20317;-67
2023/07/04 04:39:49;;;;;;;5.30;2.37;;;;;23.10;100094.00;;;;2055388;28;20226;-67
2023/07/04 04:40:50;;;;;;;6.07;2.30;;;;;23.10;100090.00;;;;2067247;28;20210;-67
2023/07/04 04:41:52;;;;;;;8.30;2.97;;;;;23.10;100093.00;;;;2060828;28;20289;-67
2023/07/04 04:42:53;;;;;;;4.88;2.13;;;;;23.10;100092.00;;;;2045768;28;20555;-67
2023/07/04 04:43:54;;;;;;;4.67;2.50;;;;;23.20;100090.00;;;;2061099;28;20221;-66
2023/07/04 04:44:55;;;;;;;7.32;2.50;;;;;23.20;100094.00;;;;2061979;28;20454;-67
2023/07/04 04:45:57;;;;;;;5.70;2.10;;;;;23.20;100092.00;;;;2066797;28;20219;-66
2023/07/04 04:46:58;;;;;;;5.45;2.50;;;;;23.30;100100.00;;;;2063620;28;20214;-66
2023/07/04 04:48:01;;;;;;;5.10;2.55;;;;;23.30;100093.00;;;;2051621;28;20203;-66
2023/07/04 04:49:04;;;;;;;7.93;2.72;;;;;23.30;100092.00;;;;2063149;28;20238;-66
2023/07/04 04:50:06;;;;;;;4.15;2.35;;;;;23.30;100094.00;;;;2066399;28;20224;-66
2023/07/04 04:51:07;;;;;;;4.10;2.08;;;;;23.30;100100.00;;;;2063024;28;20714;-66
2023/07/04 04:52:07;;;;;;;7.88;2.42;;;;;23.30;100099.00;;;;2045717;28;20673;-66
2023/07/04 04:53:14;;;;;;;4.90;2.07;;;;;23.30;100101.00;;;;2054613;28;20219;-67
2023/07/04 04:54:15;;;;;;;6.07;2.55;;;;;23.30;100090.00;;;;2066811;28;20207;-67
2023/07/04 04:55:15;;;;;;;8.00;2.40;;;;;23.30;100098.00;;;;2063878;28;20207;-67
2023/07/04 04:56:16;;;;;;;5.00;2.43;;;;;23.30;100085.00;;;;2063197;28;20298;-67
2023/07/04 04:57:16;;;;;;;3.30;2.23;;;;;23.30;100107.00;;;;2041256;28;20438;-67
2023/07/04 04:58:17;;;;;;;7.23;2.33;;;;;23.30;100110.00;;;;2049094;28;20347;-67
2023/07/04 04:59:17;;;;;;;4.85;2.72;;;;;23.30;100107.00;;;;2058305;28;20210;-67
2023/07/04 05:00:18;;;;;;;9.13;2.63;;;;;23.40;100106.00;;;;2061215;28;20210;-67
2023/07/04 05:01:21;;;;;;;11.00;2.77;;;;;23.30;100103.00;;;;2060631;28;20635;-67
2023/07/04 05:02:23;;;;;;;5.05;2.20;;;;;23.30;100109.00;;;;2053858;28;20306;-67
2023/07/04 05:03:24;;;;;;;6.55;2.20;;;;;23.20;100118.00;;;;2067810;28;20603;-67